Time;durP1;ratioP1;P1;durP2;ratioP2;P2;SDS_P1;SDS_P2;PMS_P1;PMS_P2;Temp;Humidity;BMP_temperature;BMP_pressure;BME280_temperature;BME280_humidity;BME280_pressure;Samples;Min_cycle;Max_cycle;Signal;HPM_P1;HPM_P2
2023/05/06 00:01:02;;;;;;;13.68;12.27;;;13.60;99.90;;;;;;6211984;23;20284;-75
2023/05/06 00:03:28;;;;;;;16.15;13.65;;;13.60;99.90;;;;;;6184803;23;20075;-74
2023/05/06 00:05:53;;;;;;;17.13;13.32;;;13.70;99.90;;;;;;6212185;23;20000;-74
2023/05/06 00:08:19;;;;;;;14.18;12.60;;;13.70;99.90;;;;;;6185245;23;20000;-74
2023/05/06 00:10:45;;;;;;;13.75;12.25;;;13.70;99.90;;;;;;6212534;23;20004;-74
2023/05/06 00:13:11;;;;;;;14.10;12.57;;;13.80;99.90;;;;;;6213406;23;20013;-74
2023/05/06 00:15:37;;;;;;;15.23;11.93;;;13.80;99.90;;;;;;6213557;23;20029;-74
2023/05/06 00:18:03;;;;;;;14.82;13.38;;;13.90;99.90;;;;;;6184832;23;20143;-75
2023/05/06 00:20:28;;;;;;;14.07;12.55;;;13.90;99.90;;;;;;6185556;23;20459;-74
2023/05/06 00:22:54;;;;;;;17.40;13.80;;;13.80;99.90;;;;;;6211917;23;20000;-73
2023/05/06 00:25:20;;;;;;;15.23;12.10;;;13.80;99.90;;;;;;6185339;23;20003;-74
2023/05/06 00:27:46;;;;;;;14.23;12.60;;;13.80;99.90;;;;;;6213211;23;20083;-74
2023/05/06 00:30:12;;;;;;;15.75;12.68;;;13.70;99.90;;;;;;6185851;23;20017;-74
2023/05/06 00:32:37;;;;;;;13.98;12.50;;;13.70;99.90;;;;;;6212057;23;20000;-74
2023/05/06 00:35:03;;;;;;;13.10;11.73;;;13.70;99.90;;;;;;6185196;23;20001;-74
2023/05/06 00:37:29;;;;;;;15.18;13.50;;;13.60;99.90;;;;;;6211744;23;19997;-74
2023/05/06 00:39:55;;;;;;;16.35;13.18;;;13.60;99.90;;;;;;6185292;23;20012;-74
2023/05/06 00:42:23;;;;;;;17.65;13.93;;;13.60;99.90;;;;;;6184701;23;20044;-74
2023/05/06 00:44:50;;;;;;;16.02;14.50;;;13.60;99.90;;;;;;6212043;23;20007;-74
2023/05/06 00:47:17;;;;;;;16.83;14.68;;;13.50;99.90;;;;;;6210810;23;20507;-74
2023/05/06 00:49:45;;;;;;;18.73;15.07;;;13.50;99.90;;;;;;6212153;23;20027;-74
2023/05/06 00:52:11;;;;;;;15.98;14.35;;;13.50;99.90;;;;;;6211343;23;20012;-74
2023/05/06 00:54:36;;;;;;;16.05;14.45;;;13.50;99.90;;;;;;6211917;23;20000;-74
2023/05/06 00:57:02;;;;;;;17.10;15.32;;;13.40;99.90;;;;;;6211489;23;20366;-74
2023/05/06 00:59:28;;;;;;;17.02;15.23;;;13.40;99.90;;;;;;6211448;23;20127;-74
2023/05/06 01:01:53;;;;;;;17.08;15.27;;;13.40;99.90;;;;;;6211159;23;19996;-74
2023/05/06 01:04:21;;;;;;;16.58;14.65;;;13.40;99.90;;;;;;6211297;23;20390;-74
2023/05/06 01:07:07;;;;;;;17.77;15.93;;;13.50;99.90;;;;;;6211623;23;20366;-75
2023/05/06 01:09:46;;;;;;;16.65;14.88;;;13.50;99.90;;;;;;6211549;23;20058;-74
2023/05/06 01:12:28;;;;;;;17.52;15.40;;;13.50;99.90;;;;;;6184360;23;20051;-75
2023/05/06 01:15:08;;;;;;;17.23;15.52;;;13.50;99.90;;;;;;6211562;23;20034;-74
2023/05/06 01:17:38;;;;;;;19.40;17.17;;;13.50;99.90;;;;;;6211391;23;20005;-74
2023/05/06 01:20:09;;;;;;;21.85;19.05;;;13.50;99.90;;;;;;6184422;23;20026;-74
2023/05/06 01:22:36;;;;;;;21.23;18.90;;;13.50;99.90;;;;;;6211595;23;20349;-74
2023/05/06 01:25:02;;;;;;;22.05;19.75;;;13.50;99.90;;;;;;6211527;23;20477;-74
2023/05/06 01:27:27;;;;;;;20.45;18.25;;;13.40;99.90;;;;;;6211609;23;20020;-74
2023/05/06 01:29:53;;;;;;;20.08;17.98;;;13.30;99.90;;;;;;6210960;23;20004;-74
2023/05/06 01:32:34;;;;;;;23.38;18.45;;;13.40;99.90;;;;;;6210827;23;20004;-74
2023/05/06 01:35:27;;;;;;;20.83;18.70;;;13.30;99.90;;;;;;6211876;23;20100;-74
2023/05/06 01:38:08;;;;;;;21.75;19.33;;;13.30;99.90;;;;;;6211398;23;20711;-74
2023/05/06 01:40:35;;;;;;;25.40;18.08;;;13.30;99.90;;;;;;6210709;23;20024;-74
2023/05/06 01:43:04;;;;;;;21.50;19.40;;;13.20;99.90;;;;;;6184918;23;20009;-74
2023/05/06 01:45:32;;;;;;;23.88;21.13;;;13.20;99.90;;;;;;6210374;23;19993;-75
2023/05/06 01:47:58;;;;;;;24.77;21.10;;;13.20;99.90;;;;;;6211546;23;20000;-75
2023/05/06 01:50:24;;;;;;;24.85;20.55;;;13.20;99.90;;;;;;6210751;23;20035;-74
2023/05/06 01:53:01;;;;;;;23.50;19.52;;;13.10;99.90;;;;;;6211418;23;20071;-74
2023/05/06 01:55:27;;;;;;;25.75;21.65;;;13.10;99.90;;;;;;6183816;23;20004;-74
2023/05/06 01:57:53;;;;;;;29.58;22.55;;;13.00;99.90;;;;;;6211306;23;20004;-75
2023/05/06 02:00:19;;;;;;;26.13;21.20;;;13.00;99.90;;;;;;6209775;23;20414;-74
2023/05/06 02:02:46;;;;;;;24.98;22.25;;;13.00;99.90;;;;;;6184682;23;20000;-74
2023/05/06 02:05:11;;;;;;;30.58;22.42;;;12.90;99.90;;;;;;6184166;23;20430;-74
2023/05/06 02:07:37;;;;;;;25.10;22.35;;;12.90;99.90;;;;;;6211194;23;20011;-74
2023/05/06 02:10:03;;;;;;;23.90;21.25;;;12.80;99.90;;;;;;6184422;23;20016;-74
2023/05/06 02:12:28;;;;;;;26.90;22.88;;;12.80;99.90;;;;;;6210765;23;20098;-74
2023/05/06 02:14:55;;;;;;;24.55;21.95;;;12.80;99.90;;;;;;6210660;23;20464;-74
2023/05/06 02:17:20;;;;;;;25.08;22.48;;;12.80;99.90;;;;;;6183992;23;20221;-75
2023/05/06 02:19:46;;;;;;;27.35;23.00;;;12.70;99.90;;;;;;6211096;23;20005;-74
2023/05/06 02:22:11;;;;;;;26.75;22.65;;;12.70;99.90;;;;;;6184197;23;20000;-74
2023/05/06 02:24:37;;;;;;;27.83;22.92;;;12.70;99.90;;;;;;6183995;23;20070;-74
2023/05/06 02:27:03;;;;;;;31.45;26.00;;;12.60;99.90;;;;;;6184312;23;20035;-75
2023/05/06 02:29:28;;;;;;;30.60;23.95;;;12.60;99.90;;;;;;6209889;23;20080;-74
2023/05/06 02:31:54;;;;;;;27.52;24.55;;;12.60;99.90;;;;;;6211015;23;20034;-74
2023/05/06 02:34:20;;;;;;;30.08;26.15;;;12.50;99.90;;;;;;6210513;23;20001;-74
2023/05/06 02:36:45;;;;;;;34.22;25.98;;;12.50;99.90;;;;;;6210554;23;20012;-74
2023/05/06 02:39:11;;;;;;;36.08;27.45;;;12.50;99.90;;;;;;6210454;23;20012;-75
2023/05/06 02:41:37;;;;;;;30.90;26.65;;;12.50;99.90;;;;;;6210579;23;20438;-74
2023/05/06 02:44:02;;;;;;;32.78;26.92;;;12.50;99.90;;;;;;6212480;23;20005;-74
2023/05/06 02:46:28;;;;;;;30.45;25.25;;;12.50;99.90;;;;;;6212809;23;20079;-74
2023/05/06 02:48:53;;;;;;;31.15;26.38;;;12.40;99.90;;;;;;6212667;23;20043;-74
2023/05/06 02:51:19;;;;;;;31.90;26.63;;;12.40;99.90;;;;;;6212950;23;19996;-74
2023/05/06 02:53:45;;;;;;;31.55;26.20;;;12.40;99.90;;;;;;6212712;23;20334;-74
2023/05/06 02:56:10;;;;;;;30.55;25.40;;;12.40;99.90;;;;;;6212501;23;20000;-74
2023/05/06 02:58:36;;;;;;;31.55;25.08;;;12.30;99.90;;;;;;6212153;23;20461;-75
2023/05/06 03:01:01;;;;;;;34.03;27.75;;;12.30;99.90;;;;;;6185947;23;20004;-74
2023/05/06 03:03:27;;;;;;;28.70;24.92;;;12.30;99.90;;;;;;6212695;23;20012;-75
2023/05/06 03:05:52;;;;;;;28.77;24.45;;;12.20;99.90;;;;;;6212596;23;20059;-75
2023/05/06 03:08:18;;;;;;;34.40;25.48;;;12.20;99.90;;;;;;6185596;23;20008;-74
2023/05/06 03:10:43;;;;;;;31.05;26.00;;;12.20;99.90;;;;;;6212606;23;20384;-74
2023/05/06 03:13:09;;;;;;;29.67;25.88;;;12.20;99.90;;;;;;6212017;23;20322;-74
2023/05/06 03:15:35;;;;;;;29.17;25.05;;;12.10;99.90;;;;;;6186161;23;20025;-74
2023/05/06 03:18:00;;;;;;;31.17;25.77;;;12.20;99.90;;;;;;6212476;23;20017;-75
2023/05/06 03:20:27;;;;;;;29.88;24.40;;;12.10;99.90;;;;;;6212484;23;20000;-75
2023/05/06 03:22:53;;;;;;;29.38;25.35;;;12.10;99.90;;;;;;6212312;23;20007;-74
2023/05/06 03:25:20;;;;;;;28.92;25.27;;;12.00;99.90;;;;;;6212420;23;20016;-74
2023/05/06 03:27:45;;;;;;;30.08;24.65;;;12.00;99.90;;;;;;6211827;23;20005;-74
2023/05/06 03:30:11;;;;;;;29.90;25.50;;;12.00;99.90;;;;;;6212751;23;20012;-74
2023/05/06 03:32:37;;;;;;;34.40;26.85;;;11.90;99.90;;;;;;6187654;23;20008;-73
2023/05/06 03:35:03;;;;;;;29.80;25.27;;;12.00;99.90;;;;;;6187267;23;20008;-74
2023/05/06 03:37:29;;;;;;;31.38;27.52;;;11.90;99.90;;;;;;6211896;23;20007;-74
2023/05/06 03:39:55;;;;;;;30.45;25.88;;;11.90;99.90;;;;;;6211497;23;20453;-74
2023/05/06 03:42:20;;;;;;;32.03;25.90;;;11.90;99.90;;;;;;6210143;23;20021;-74
2023/05/06 03:44:46;;;;;;;29.17;25.95;;;11.80;99.90;;;;;;6184203;23;20008;-74
2023/05/06 03:47:11;;;;;;;28.00;24.70;;;11.80;99.90;;;;;;6185505;23;20464;-74
2023/05/06 03:49:37;;;;;;;33.10;26.40;;;11.80;99.90;;;;;;6187186;23;20064;-74
2023/05/06 03:52:03;;;;;;;32.75;25.45;;;11.70;99.90;;;;;;6212634;23;20043;-74
2023/05/06 03:54:28;;;;;;;34.35;27.30;;;11.70;99.90;;;;;;6211493;23;20481;-74
2023/05/06 03:56:54;;;;;;;28.90;25.05;;;11.70;99.90;;;;;;6211429;23;20659;-74
2023/05/06 03:59:19;;;;;;;32.40;27.63;;;11.70;99.90;;;;;;6211859;23;20029;-74
2023/05/06 04:01:45;;;;;;;31.27;25.83;;;11.70;99.90;;;;;;6212123;23;20322;-75
2023/05/06 04:04:11;;;;;;;41.63;29.38;;;11.70;99.90;;;;;;6184730;23;20553;-74
2023/05/06 04:06:36;;;;;;;35.28;27.05;;;11.70;99.90;;;;;;6212189;23;20001;-75
2023/05/06 04:09:03;;;;;;;33.50;26.63;;;11.70;99.90;;;;;;6212213;23;20431;-74
2023/05/06 04:11:30;;;;;;;29.77;25.23;;;11.70;99.90;;;;;;6212046;23;20929;-74
2023/05/06 04:13:56;;;;;;;35.22;28.33;;;11.70;99.90;;;;;;6212283;23;20477;-74
2023/05/06 04:16:21;;;;;;;33.78;26.88;;;11.70;99.90;;;;;;6211701;23;20088;-74
2023/05/06 04:18:48;;;;;;;35.05;28.52;;;11.70;99.90;;;;;;6212207;23;20012;-74
2023/05/06 04:21:13;;;;;;;30.58;25.80;;;11.70;99.90;;;;;;6184868;23;20027;-74
2023/05/06 04:23:40;;;;;;;31.58;26.55;;;11.70;99.90;;;;;;6211647;23;20414;-74
2023/05/06 04:26:05;;;;;;;36.10;27.60;;;11.70;99.90;;;;;;6184769;23;20008;-74
2023/05/06 04:28:31;;;;;;;37.60;29.25;;;11.80;99.90;;;;;;6185077;23;20442;-75
2023/05/06 04:30:57;;;;;;;39.00;29.27;;;11.80;99.90;;;;;;6185154;23;20004;-74
2023/05/06 04:33:24;;;;;;;39.45;28.70;;;11.90;99.90;;;;;;6184757;23;20890;-74
2023/05/06 04:35:53;;;;;;;74.70;30.60;;;11.90;99.90;;;;;;6212110;23;20001;-74
2023/05/06 04:38:24;;;;;;;60.55;27.88;;;12.00;99.90;;;;;;6210306;23;20501;-74
2023/05/06 04:40:50;;;;;;;62.05;28.38;;;12.10;99.90;;;;;;6185058;23;20031;-74
2023/05/06 04:43:16;;;;;;;53.10;28.85;;;12.20;99.90;;;;;;6184262;23;20397;-74
2023/05/06 04:45:48;;;;;;;73.53;25.48;;;12.20;99.90;;;;;;6211821;23;20027;-75
2023/05/06 04:48:17;;;;;;;44.33;25.98;;;12.30;99.90;;;;;;6211051;23;20003;-74
2023/05/06 04:50:43;;;;;;;66.53;25.95;;;12.30;99.90;;;;;;6211959;23;20008;-74
2023/05/06 04:53:09;;;;;;;51.95;23.25;;;12.40;99.90;;;;;;6184572;23;20005;-74
2023/05/06 04:55:35;;;;;;;95.07;26.52;;;12.40;99.90;;;;;;6211432;23;20004;-74
2023/05/06 04:58:00;;;;;;;94.07;27.35;;;12.50;99.90;;;;;;6211708;23;20012;-74
2023/05/06 05:00:26;;;;;;;71.30;25.52;;;12.50;99.90;;;;;;6211067;23;20280;-74
2023/05/06 05:02:52;;;;;;;35.88;23.25;;;12.50;99.90;;;;;;6211756;23;20357;-75
2023/05/06 05:05:18;;;;;;;40.50;24.33;;;12.50;99.90;;;;;;6211042;23;20076;-74
2023/05/06 05:07:44;;;;;;;48.40;24.67;;;12.60;99.90;;;;;;6184332;23;20001;-75
2023/05/06 05:10:09;;;;;;;79.32;26.77;;;12.60;99.90;;;;;;6184868;23;20028;-75
2023/05/06 05:12:35;;;;;;;51.55;20.70;;;12.70;99.90;;;;;;6211081;23;20001;-75
2023/05/06 05:15:01;;;;;;;37.85;25.38;;;12.70;99.90;;;;;;6184800;23;20035;-74
2023/05/06 05:17:26;;;;;;;33.60;23.02;;;12.60;99.90;;;;;;6184373;23;20040;-74
2023/05/06 05:19:52;;;;;;;40.33;23.88;;;12.70;99.90;;;;;;6211406;23;20027;-74
2023/05/06 05:22:17;;;;;;;42.00;26.33;;;12.70;99.90;;;;;;6184303;23;20465;-75
2023/05/06 05:24:43;;;;;;;29.10;23.65;;;12.70;99.90;;;;;;6184618;23;20001;-74
2023/05/06 05:27:09;;;;;;;40.88;25.58;;;12.80;99.90;;;;;;6184768;23;20004;-74
2023/05/06 05:29:35;;;;;;;36.58;25.63;;;12.80;99.90;;;;;;6184471;23;20456;-75
2023/05/06 05:32:01;;;;;;;31.08;26.10;;;12.90;99.90;;;;;;6211726;23;20032;-74
2023/05/06 05:34:27;;;;;;;29.73;25.50;;;12.90;99.90;;;;;;6184462;23;20018;-74
2023/05/06 05:36:52;;;;;;;27.83;24.88;;;12.90;99.90;;;;;;6184467;23;20051;-75
2023/05/06 05:39:18;;;;;;;28.80;25.70;;;13.00;99.90;;;;;;6211159;23;20468;-74
2023/05/06 05:41:43;;;;;;;28.00;25.00;;;13.10;99.90;;;;;;6210905;23;20020;-74
2023/05/06 05:44:09;;;;;;;26.98;24.00;;;13.20;99.90;;;;;;6211377;23;20016;-74
2023/05/06 05:46:38;;;;;;;25.55;22.98;;;13.20;99.90;;;;;;6210883;23;19997;-74
2023/05/06 05:49:03;;;;;;;24.05;21.70;;;13.20;99.90;;;;;;6211471;23;20005;-74
2023/05/06 05:51:29;;;;;;;26.20;23.38;;;13.30;99.90;;;;;;6210440;23;20020;-74
2023/05/06 05:53:55;;;;;;;23.80;21.42;;;13.30;99.90;;;;;;6184972;23;20029;-74
2023/05/06 05:56:20;;;;;;;25.50;22.85;;;13.30;99.90;;;;;;6183985;23;20012;-74
2023/05/06 05:58:46;;;;;;;25.95;23.38;;;13.40;99.90;;;;;;6211147;23;20001;-74
2023/05/06 06:01:13;;;;;;;26.77;24.15;;;13.50;99.90;;;;;;6210930;23;20000;-75
2023/05/06 06:03:39;;;;;;;24.35;21.95;;;13.50;99.90;;;;;;6182078;23;20008;-75
2023/05/06 06:06:04;;;;;;;25.73;23.15;;;13.70;99.90;;;;;;6209507;23;20009;-74
2023/05/06 06:08:31;;;;;;;24.70;22.33;;;13.80;99.90;;;;;;6210447;23;20001;-74
2023/05/06 06:10:56;;;;;;;26.55;24.00;;;14.00;99.90;;;;;;6211169;23;20031;-74
2023/05/06 06:13:22;;;;;;;25.05;22.70;;;14.20;99.90;;;;;;6211120;23;20013;-74
2023/05/06 06:15:48;;;;;;;25.25;22.95;;;14.30;99.90;;;;;;6210904;23;20009;-74
2023/05/06 06:18:13;;;;;;;25.45;23.02;;;14.40;99.90;;;;;;6210533;23;20402;-74
2023/05/06 06:20:39;;;;;;;26.70;23.92;;;14.50;99.90;;;;;;6210652;23;20005;-74
2023/05/06 06:23:04;;;;;;;25.15;22.83;;;14.60;99.90;;;;;;6211302;23;20442;-74
2023/05/06 06:25:30;;;;;;;27.23;24.52;;;14.60;99.90;;;;;;6211041;23;20012;-75
2023/05/06 06:27:56;;;;;;;23.02;20.85;;;14.70;99.90;;;;;;6210847;23;20011;-75
2023/05/06 06:30:21;;;;;;;24.13;21.73;;;14.70;99.90;;;;;;6184168;23;20035;-75
2023/05/06 06:32:52;;;;;;;25.17;22.67;;;14.70;99.90;;;;;;6210989;23;20427;-75
2023/05/06 06:35:18;;;;;;;23.02;20.88;;;14.80;99.90;;;;;;6210345;23;20422;-74
2023/05/06 06:37:45;;;;;;;25.08;22.80;;;14.80;99.90;;;;;;6210938;23;20007;-75
2023/05/06 06:40:11;;;;;;;23.02;20.98;;;14.80;99.90;;;;;;6184345;23;20001;-75
2023/05/06 06:42:37;;;;;;;23.20;21.05;;;14.90;99.90;;;;;;6184454;23;20154;-74
2023/05/06 06:45:03;;;;;;;24.42;22.15;;;14.90;99.90;;;;;;6211030;23;20437;-75
2023/05/06 06:47:28;;;;;;;23.73;21.42;;;15.00;99.90;;;;;;6210951;23;20454;-74
2023/05/06 06:49:54;;;;;;;24.38;22.00;;;15.00;99.90;;;;;;6211703;23;20076;-75
2023/05/06 06:52:19;;;;;;;25.00;22.65;;;15.10;99.90;;;;;;6212651;23;20001;-74
2023/05/06 06:54:45;;;;;;;23.20;21.13;;;15.20;99.90;;;;;;6185222;23;20062;-75
2023/05/06 06:57:10;;;;;;;22.20;20.15;;;15.20;99.90;;;;;;6210621;23;20084;-74
2023/05/06 06:59:36;;;;;;;23.80;21.45;;;15.20;99.90;;;;;;6211517;23;20005;-74
2023/05/06 07:02:02;;;;;;;25.00;22.55;;;15.20;99.90;;;;;;6211394;23;20000;-74
2023/05/06 07:04:27;;;;;;;22.95;20.73;;;15.30;99.90;;;;;;6210875;23;20001;-75
2023/05/06 07:06:53;;;;;;;22.98;20.75;;;15.40;99.90;;;;;;6211629;23;20354;-74
2023/05/06 07:09:18;;;;;;;23.42;21.23;;;15.40;99.90;;;;;;6185438;23;20004;-73
2023/05/06 07:11:44;;;;;;;23.13;21.02;;;15.40;99.90;;;;;;6211478;23;20391;-74
2023/05/06 07:14:10;;;;;;;23.05;20.70;;;15.50;99.90;;;;;;6210809;23;20038;-75
2023/05/06 07:16:36;;;;;;;23.25;21.15;;;15.60;99.90;;;;;;6211207;23;20088;-75
2023/05/06 07:19:01;;;;;;;23.13;20.88;;;15.70;99.90;;;;;;6209966;23;20036;-75
2023/05/06 07:21:27;;;;;;;23.45;21.08;;;15.70;99.90;;;;;;6210774;23;20000;-74
2023/05/06 07:23:53;;;;;;;22.88;20.77;;;15.80;99.90;;;;;;6211004;23;20000;-78
2023/05/06 07:26:20;;;;;;;23.65;21.55;;;15.90;99.90;;;;;;6183343;23;20078;-79
2023/05/06 07:28:45;;;;;;;20.60;18.63;;;16.00;99.90;;;;;;6211803;23;20005;-78
2023/05/06 07:31:11;;;;;;;23.55;21.17;;;16.10;99.90;;;;;;6185175;23;20043;-79
2023/05/06 07:33:36;;;;;;;23.75;21.48;;;16.20;99.90;;;;;;6185564;23;20088;-78
2023/05/06 07:36:02;;;;;;;23.17;20.85;;;16.30;99.90;;;;;;6211986;23;19997;-77
2023/05/06 07:38:28;;;;;;;22.10;20.00;;;16.30;99.90;;;;;;6212168;23;20005;-78
2023/05/06 07:40:53;;;;;;;23.27;21.20;;;16.40;99.90;;;;;;6185846;23;20017;-78
2023/05/06 07:43:21;;;;;;;20.63;18.63;;;16.60;99.90;;;;;;6185253;23;20004;-77
2023/05/06 07:45:47;;;;;;;21.73;19.40;;;16.70;99.90;;;;;;6212866;23;20000;-78
2023/05/06 07:48:12;;;;;;;20.88;18.88;;;16.80;99.90;;;;;;6184748;23;20083;-78
2023/05/06 07:50:38;;;;;;;20.10;18.38;;;17.00;99.90;;;;;;6186037;23;20008;-78
2023/05/06 07:53:04;;;;;;;22.08;19.92;;;17.10;99.90;;;;;;6212381;23;20008;-78
2023/05/06 07:55:30;;;;;;;21.38;19.38;;;17.20;99.90;;;;;;6185106;23;20032;-78
2023/05/06 07:57:55;;;;;;;22.85;20.58;;;17.30;99.90;;;;;;6185576;23;20377;-78
2023/05/06 08:00:21;;;;;;;20.13;18.23;;;17.40;99.90;;;;;;6185271;23;20163;-78
2023/05/06 08:02:47;;;;;;;19.55;17.70;;;17.50;99.90;;;;;;6184947;23;20047;-78
2023/05/06 08:05:13;;;;;;;21.45;19.52;;;17.50;99.90;;;;;;6210709;23;20071;-77
2023/05/06 08:07:40;;;;;;;22.00;19.88;;;17.60;99.90;;;;;;6211683;23;20279;-78
2023/05/06 08:10:07;;;;;;;21.25;19.30;;;17.60;99.90;;;;;;6211861;23;19996;-78
2023/05/06 08:12:34;;;;;;;20.30;18.52;;;17.60;99.90;;;;;;6184424;23;20001;-78
2023/05/06 08:15:00;;;;;;;21.52;19.52;;;17.70;99.90;;;;;;6185069;23;20468;-78
2023/05/06 08:17:25;;;;;;;20.65;18.80;;;17.80;99.90;;;;;;6183693;23;20095;-78
2023/05/06 08:19:51;;;;;;;20.40;18.60;;;17.80;99.90;;;;;;6211430;23;20015;-77
2023/05/06 08:22:17;;;;;;;22.92;20.63;;;17.90;99.90;;;;;;6211152;23;20004;-78
2023/05/06 08:24:42;;;;;;;20.48;18.50;;;17.90;99.90;;;;;;6211952;23;20387;-78
2023/05/06 08:27:08;;;;;;;19.63;17.77;;;18.00;99.90;;;;;;6184955;23;20088;-77
2023/05/06 08:29:34;;;;;;;20.85;18.85;;;18.20;99.90;;;;;;6211165;23;20000;-78
2023/05/06 08:32:00;;;;;;;18.27;16.52;;;18.30;99.90;;;;;;6184393;23;20016;-78
2023/05/06 08:34:26;;;;;;;21.58;19.55;;;18.50;99.90;;;;;;6210669;23;20005;-78
2023/05/06 08:36:51;;;;;;;21.92;19.63;;;18.50;99.90;;;;;;6185650;23;20074;-78
2023/05/06 08:39:17;;;;;;;20.20;18.02;;;18.60;99.90;;;;;;6211316;23;20088;-79
2023/05/06 08:41:51;;;;;;;20.23;18.23;;;18.70;99.90;;;;;;6211371;23;20402;-77
2023/05/06 08:44:17;;;;;;;;;;;18.80;99.90;;;;;;6212096;23;20004;-78
2023/05/06 08:46:44;;;;;;;19.60;17.48;;;18.90;99.90;;;;;;6211203;23;19927;-78
2023/05/06 08:49:09;;;;;;;19.80;17.17;;;19.00;99.90;;;;;;6184999;23;20005;-78
2023/05/06 08:51:36;;;;;;;19.02;17.10;;;19.20;99.90;;;;;;6184700;23;20005;-78
2023/05/06 08:54:03;;;;;;;18.95;17.17;;;19.30;99.90;;;;;;6185057;23;20362;-79
2023/05/06 08:56:31;;;;;;;19.08;17.13;;;19.40;99.90;;;;;;6211446;23;20333;-78
2023/05/06 08:58:58;;;;;;;18.73;16.85;;;19.50;99.90;;;;;;6185196;23;20074;-79
2023/05/06 09:01:26;;;;;;;20.55;17.08;;;19.60;99.90;;;;;;6184502;23;20330;-79
2023/05/06 09:03:52;;;;;;;20.48;16.55;;;19.70;99.90;;;;;;6184909;23;20012;-78
2023/05/06 09:06:18;;;;;;;17.95;16.25;;;19.80;99.90;;;;;;6184810;23;20001;-81
2023/05/06 09:08:44;;;;;;;19.35;16.33;;;19.90;99.90;;;;;;6184869;23;20086;-79
2023/05/06 09:11:24;;;;;;;17.85;16.05;;;20.10;99.90;;;;;;6211876;23;20013;-78
2023/05/06 09:13:50;;;;;;;17.73;16.02;;;20.20;99.90;;;;;;6210521;23;20106;-78
2023/05/06 09:16:27;;;;;;;17.90;16.10;;;20.30;99.90;;;;;;6211401;23;20076;-78
2023/05/06 09:18:53;;;;;;;20.42;18.00;;;20.30;99.90;;;;;;6184460;23;20009;-78
2023/05/06 09:21:18;;;;;;;18.15;16.25;;;20.30;99.90;;;;;;6211694;23;20004;-79
2023/05/06 09:23:44;;;;;;;18.88;16.98;;;20.30;99.90;;;;;;6184952;23;20426;-78
2023/05/06 09:26:10;;;;;;;18.65;15.95;;;20.30;99.90;;;;;;6211614;23;20000;-79
2023/05/06 09:28:35;;;;;;;18.83;16.73;;;20.30;99.90;;;;;;6211064;23;20063;-77
2023/05/06 09:31:01;;;;;;;17.67;15.75;;;20.30;99.90;;;;;;6184811;23;20423;-78
2023/05/06 09:33:27;;;;;;;17.85;15.45;;;20.30;99.90;;;;;;6184240;23;20045;-78
2023/05/06 09:35:52;;;;;;;18.88;16.40;;;20.30;99.90;;;;;;6184952;23;20004;-78
2023/05/06 09:38:18;;;;;;;14.50;13.07;;;20.30;99.90;;;;;;6211219;23;20012;-78
2023/05/06 09:40:43;;;;;;;17.00;15.23;;;20.20;99.90;;;;;;6184311;23;20000;-78
2023/05/06 09:43:09;;;;;;;17.77;14.10;;;20.20;99.90;;;;;;6210771;23;20001;-78
2023/05/06 09:45:35;;;;;;;17.15;13.95;;;20.20;99.90;;;;;;6184735;23;20027;-78
2023/05/06 09:48:01;;;;;;;13.60;12.13;;;20.20;99.90;;;;;;6184634;23;20039;-77
2023/05/06 09:50:27;;;;;;;17.70;14.27;;;20.30;99.90;;;;;;6211601;23;20011;-77
2023/05/06 09:52:54;;;;;;;15.27;13.63;;;20.20;99.90;;;;;;6211275;23;20070;-79
2023/05/06 09:55:22;;;;;;;14.25;12.57;;;20.20;99.90;;;;;;6184274;23;20005;-79
2023/05/06 09:57:49;;;;;;;18.02;15.35;;;20.20;99.90;;;;;;6183702;23;20005;-78
2023/05/06 10:00:15;;;;;;;15.57;13.70;;;20.20;99.90;;;;;;6211105;23;20000;-78
2023/05/06 10:02:42;;;;;;;15.02;12.88;;;20.20;99.90;;;;;;6184955;23;20001;-79
2023/05/06 10:05:10;;;;;;;15.30;13.70;;;20.30;99.90;;;;;;6211058;23;20011;-79
2023/05/06 10:07:36;;;;;;;12.70;11.55;;;20.40;99.90;;;;;;6185260;23;20005;-79
2023/05/06 10:10:07;;;;;;;13.00;11.52;;;20.40;99.90;;;;;;6186201;23;20039;-78
2023/05/06 10:12:34;;;;;;;11.13;10.13;;;20.50;99.90;;;;;;6185824;23;20422;-78
2023/05/06 10:15:00;;;;;;;12.95;11.55;;;20.60;99.90;;;;;;6184468;23;20346;-78
2023/05/06 10:17:27;;;;;;;14.13;12.57;;;20.70;99.90;;;;;;6184172;23;20035;-78
2023/05/06 10:19:57;;;;;;;12.68;11.43;;;20.80;99.90;;;;;;6210959;23;20035;-78
2023/05/06 10:22:32;;;;;;;11.48;10.20;;;20.90;99.90;;;;;;6211014;23;20055;-78
2023/05/06 10:25:04;;;;;;;13.35;11.40;;;21.00;99.90;;;;;;6185973;23;20008;-78
2023/05/06 10:27:34;;;;;;;10.35;9.38;;;21.30;99.90;;;;;;6186327;23;20368;-78
2023/05/06 10:29:59;;;;;;;10.57;9.45;;;21.40;99.90;;;;;;6211630;23;20005;-78
2023/05/06 10:32:30;;;;;;;12.48;11.20;;;21.50;99.90;;;;;;6184374;23;20054;-78
2023/05/06 10:35:26;;;;;;;11.73;10.52;;;21.60;99.90;;;;;;6184925;23;20008;-78
2023/05/06 10:37:53;;;;;;;10.82;9.68;;;21.50;99.90;;;;;;6203917;23;20004;-78
2023/05/06 10:40:19;;;;;;;11.20;10.13;;;21.40;99.80;;;;;;6210532;23;20071;-79
2023/05/06 10:42:44;;;;;;;10.05;9.00;;;21.30;99.50;;;;;;6210529;23;20378;-78
2023/05/06 10:45:10;;;;;;;12.77;10.25;;;21.30;99.50;;;;;;6210859;23;20005;-78
2023/05/06 10:47:57;;;;;;;11.55;10.10;;;21.30;99.20;;;;;;6210954;23;20430;-78
2023/05/06 10:50:26;;;;;;;10.77;9.68;;;21.30;98.80;;;;;;6210077;23;20022;-78
2023/05/06 10:52:57;;;;;;;12.45;10.00;;;21.30;98.00;;;;;;6184112;23;20438;-78
2023/05/06 10:55:35;;;;;;;11.50;10.32;;;21.30;98.00;;;;;;6182825;23;20008;-80
2023/05/06 10:58:09;;;;;;;10.50;9.43;;;21.30;98.30;;;;;;6184524;23;19996;-78
2023/05/06 11:00:35;;;;;;;11.57;9.50;;;21.40;98.30;;;;;;6184048;23;20003;-78
2023/05/06 11:03:10;;;;;;;10.05;8.98;;;21.50;98.20;;;;;;6211392;23;20091;-79
2023/05/06 11:05:51;;;;;;;8.45;7.63;;;21.60;97.80;;;;;;6213123;23;20054;-78
2023/05/06 11:08:24;;;;;;;7.82;7.03;;;21.80;97.90;;;;;;6212251;23;20036;-78
2023/05/06 11:10:50;;;;;;;;;;;21.90;97.70;;;;;;6186420;23;20004;-77
2023/05/06 11:13:23;;;;;;;9.65;7.18;;;21.90;97.20;;;;;;6185485;23;19907;-78
2023/05/06 11:15:50;;;;;;;8.55;7.57;;;21.90;97.10;;;;;;6186307;23;20000;-78
2023/05/06 11:18:26;;;;;;;7.70;6.82;;;22.10;97.10;;;;;;6185490;23;20004;-78
2023/05/06 11:21:03;;;;;;;7.97;7.13;;;22.20;96.40;;;;;;6186429;23;20005;-78
2023/05/06 11:23:41;;;;;;;9.05;6.93;;;22.30;95.90;;;;;;6212252;23;20005;-78
2023/05/06 11:26:10;;;;;;;6.80;5.65;;;22.40;95.50;;;;;;6212044;23;19996;-78
2023/05/06 11:28:37;;;;;;;8.40;6.78;;;22.50;95.80;;;;;;6212222;23;20008;-75
2023/05/06 11:31:03;;;;;;;7.03;6.43;;;22.50;95.20;;;;;;6185916;23;20419;-75
2023/05/06 11:33:35;;;;;;;8.32;6.18;;;22.50;95.20;;;;;;6185164;23;20193;-76
2023/05/06 11:36:02;;;;;;;6.13;5.53;;;22.60;94.40;;;;;;6212799;23;20009;-75
2023/05/06 11:38:58;;;;;;;7.13;5.50;;;22.60;94.40;;;;;;6185157;23;20017;-75
2023/05/06 11:41:23;;;;;;;5.80;5.15;;;22.70;94.30;;;;;;6185170;23;20346;-76
2023/05/06 11:43:51;;;;;;;6.25;5.25;;;22.80;94.40;;;;;;6185972;23;20001;-76
2023/05/06 11:46:21;;;;;;;7.85;5.38;;;23.00;93.60;;;;;;6185206;23;20407;-78
2023/05/06 11:48:48;;;;;;;6.70;5.70;;;23.00;93.20;;;;;;6212357;23;20051;-78
2023/05/06 11:51:13;;;;;;;5.72;4.97;;;23.00;92.60;;;;;;6185676;23;20096;-78
2023/05/06 11:53:39;;;;;;;5.90;5.03;;;23.00;92.70;;;;;;6184842;23;20029;-76
2023/05/06 11:56:05;;;;;;;6.70;5.05;;;23.10;92.20;;;;;;6185277;23;20487;-76
2023/05/06 11:58:31;;;;;;;8.65;5.97;;;23.00;91.70;;;;;;6185077;23;20489;-75
2023/05/06 12:00:59;;;;;;;8.32;5.30;;;22.90;91.80;;;;;;6212412;23;20007;-74
2023/05/06 12:03:27;;;;;;;4.85;4.45;;;22.90;91.80;;;;;;6211933;23;20445;-75
2023/05/06 12:05:53;;;;;;;5.47;4.97;;;23.00;91.90;;;;;;6185737;23;20001;-76
2023/05/06 12:08:25;;;;;;;5.28;4.28;;;23.10;91.70;;;;;;6211168;23;20430;-75
2023/05/06 12:10:51;;;;;;;3.72;3.08;;;23.10;91.40;;;;;;6185378;23;20027;-75
2023/05/06 12:13:18;;;;;;;5.72;3.35;;;23.10;90.90;;;;;;6211700;23;20008;-76
2023/05/06 12:15:45;;;;;;;6.03;4.20;;;23.10;91.00;;;;;;6211352;23;20000;-76
2023/05/06 12:18:11;;;;;;;3.67;3.17;;;23.00;90.80;;;;;;6184744;23;20005;-76
2023/05/06 12:20:37;;;;;;;8.02;3.58;;;23.00;90.10;;;;;;6185005;23;20080;-75
2023/05/06 12:23:13;;;;;;;6.47;4.25;;;23.00;90.00;;;;;;6185042;23;20051;-76
2023/05/06 12:25:40;;;;;;;7.07;3.10;;;23.00;90.20;;;;;;6185134;23;20001;-75
2023/05/06 12:28:25;;;;;;;3.88;2.30;;;23.00;89.70;;;;;;6185425;23;20008;-76
2023/05/06 12:30:51;;;;;;;2.85;2.42;;;23.00;89.30;;;;;;6211597;23;20004;-76